Time;durP1;ratioP1;P1;durP2;ratioP2;P2;SDS_P1;SDS_P2;PMS_P1;PMS_P2;Temp;Humidity;BMP_temperature;BMP_pressure;BME280_temperature;BME280_humidity;BME280_pressure;Samples;Min_cycle;Max_cycle;Signal;HPM_P1;HPM_P2
2022/04/19 00:01:16;;;;;;;1.50;1.38;;;;;;;5.79;100.00;97911.47;4942521;29;20233;-65
2022/04/19 00:03:41;;;;;;;2.47;1.20;;;;;;;5.70;100.00;97911.13;4950245;28;20605;-65
2022/04/19 00:06:07;;;;;;;1.98;1.50;;;;;;;5.62;100.00;97909.03;4950387;29;20190;-65
2022/04/19 00:08:32;;;;;;;1.40;1.30;;;;;;;5.37;100.00;97893.34;4950424;29;20670;-65
2022/04/19 00:10:59;;;;;;;2.15;1.50;;;;;;;5.33;100.00;97902.16;4950545;29;20192;-65
2022/04/19 00:13:26;;;;;;;1.48;1.40;;;;;;;4.76;100.00;97902.75;4950188;29;20185;-65
2022/04/19 00:15:51;;;;;;;1.48;1.35;;;;;;;4.63;100.00;97896.63;4950514;29;20602;-65
2022/04/19 00:18:19;;;;;;;1.70;1.60;;;;;;;4.59;100.00;97900.25;4939664;29;20185;-65
2022/04/19 00:20:44;;;;;;;1.42;1.35;;;;;;;4.72;100.00;97898.69;4940190;29;20196;-65
2022/04/19 00:23:13;;;;;;;1.42;1.42;;;;;;;4.60;100.00;97889.09;4945646;29;20189;-65
2022/04/19 00:25:42;;;;;;;1.50;1.48;;;;;;;4.86;100.00;97893.66;4950272;29;20193;-65
2022/04/19 00:28:09;;;;;;;1.67;1.65;;;;;;;4.96;100.00;97892.25;4949434;29;20200;-66
2022/04/19 00:30:35;;;;;;;2.25;1.50;;;;;;;4.86;100.00;97885.97;4932349;29;20258;-65
2022/04/19 00:33:00;;;;;;;1.42;1.42;;;;;;;5.09;100.00;97895.81;4949697;29;20177;-65
2022/04/19 00:35:28;;;;;;;1.10;1.10;;;;;;;5.33;100.00;97897.00;4949806;29;20706;-65
2022/04/19 00:37:54;;;;;;;1.20;1.20;;;;;;;5.46;100.00;97900.53;4946212;29;20323;-65
2022/04/19 00:40:19;;;;;;;1.85;1.30;;;;;;;5.39;100.00;97901.81;4938791;29;20276;-68
2022/04/19 00:42:46;;;;;;;1.20;1.20;;;;;;;5.46;100.00;97890.28;4941063;29;20195;-65
2022/04/19 00:45:12;;;;;;;1.30;1.30;;;;;;;5.64;100.00;97896.09;4948335;29;20188;-65
2022/04/19 00:47:39;;;;;;;1.20;1.20;;;;;;;5.76;100.00;97896.22;4949498;29;20197;-65
2022/04/19 00:50:05;;;;;;;1.55;1.48;;;;;;;5.80;100.00;97897.75;4949472;29;20601;-65
2022/04/19 00:52:32;;;;;;;1.38;1.38;;;;;;;5.63;100.00;97900.41;4949175;29;20185;-65
2022/04/19 00:54:59;;;;;;;2.05;1.33;;;;;;;5.64;100.00;97896.94;4949536;29;20189;-65
2022/04/19 00:57:25;;;;;;;4.88;1.30;;;;;;;5.55;100.00;97894.88;4949460;29;20295;-65
2022/04/19 00:59:53;;;;;;;1.80;1.70;;;;;;;5.39;100.00;97890.69;4940891;29;20188;-65
2022/04/19 01:02:19;;;;;;;1.50;1.40;;;;;;;5.59;100.00;97883.53;4939099;29;20687;-65
2022/04/19 01:04:45;;;;;;;1.00;1.00;;;;;;;5.63;100.00;97894.44;4942744;28;20231;-65
2022/04/19 01:07:11;;;;;;;1.60;1.50;;;;;;;5.74;100.00;97897.22;4949133;29;20237;-65
2022/04/19 01:09:37;;;;;;;1.25;1.25;;;;;;;5.81;100.00;97891.69;4949126;29;20671;-65
2022/04/19 01:14:48;;;;;;;1.35;1.30;;;;;;;5.89;100.00;97893.81;4949161;29;20626;-66
2022/04/19 01:17:14;;;;;;;1.60;1.50;;;;;;;5.85;100.00;97898.31;4949200;29;20718;-65
2022/04/19 01:19:40;;;;;;;1.35;1.25;;;;;;;5.92;100.00;97894.47;4946845;29;20189;-65
2022/04/19 01:22:06;;;;;;;1.77;1.67;;;;;;;5.92;100.00;97891.91;4937935;29;20433;-65
2022/04/19 01:24:32;;;;;;;1.20;1.20;;;;;;;5.95;100.00;97891.69;4939655;29;20208;-65
2022/04/19 01:26:58;;;;;;;1.30;1.30;;;;;;;6.01;100.00;97891.34;4947094;29;20601;-65
2022/04/19 01:29:25;;;;;;;1.45;1.45;;;;;;;5.46;100.00;97880.00;4948814;29;20192;-65
2022/04/19 01:31:51;;;;;;;1.67;1.58;;;;;;;5.12;100.00;97887.94;4948954;29;20185;-65
2022/04/19 01:34:18;;;;;;;1.50;1.40;;;;;;;5.17;100.00;97883.38;4948927;29;20189;-65
2022/04/19 01:36:44;;;;;;;1.95;1.85;;;;;;;5.08;100.00;97889.00;4948827;29;20248;-66
2022/04/19 01:39:10;;;;;;;3.05;1.60;;;;;;;5.24;100.00;97889.00;4948863;29;20663;-65
2022/04/19 01:41:37;;;;;;;2.17;1.60;;;;;;;5.23;100.00;97885.59;4941299;28;20193;-67
2022/04/19 01:44:05;;;;;;;1.48;1.38;;;;;;;4.95;100.00;97882.91;4938234;29;20207;-65
2022/04/19 01:46:31;;;;;;;1.65;1.55;;;;;;;5.15;100.00;97880.09;4940973;29;20260;-65
2022/04/19 01:48:57;;;;;;;1.90;1.80;;;;;;;5.19;100.00;97880.75;4948960;29;20565;-65
2022/04/19 01:51:24;;;;;;;1.70;1.60;;;;;;;5.18;100.00;97885.03;4948882;29;20196;-65
2022/04/19 01:53:50;;;;;;;1.77;1.50;;;;;;;5.12;100.00;97885.38;4948905;29;20193;-65
2022/04/19 01:56:16;;;;;;;1.33;1.33;;;;;;;5.17;100.00;97888.50;4948836;29;20667;-65
2022/04/19 01:58:42;;;;;;;1.70;1.60;;;;;;;4.94;100.00;97888.09;4948386;29;20208;-65
2022/04/19 02:01:08;;;;;;;1.65;1.55;;;;;;;5.06;100.00;97885.72;4948579;29;20189;-66
2022/04/19 02:03:34;;;;;;;1.60;1.60;;;;;;;4.95;100.00;97884.66;4937347;28;20467;-65
2022/04/19 02:06:00;;;;;;;1.75;1.60;;;;;;;5.01;100.00;97884.31;4939286;29;20928;-65
2022/04/19 02:08:27;;;;;;;1.58;1.52;;;;;;;4.91;100.00;97878.84;4943895;29;20710;-65
2022/04/19 02:10:52;;;;;;;3.25;1.67;;;;;;;5.06;100.00;97880.56;4948563;29;20671;-65
2022/04/19 02:13:18;;;;;;;1.60;1.50;;;;;;;5.03;100.00;97867.94;4948496;29;20196;-65
2022/04/19 02:15:46;;;;;;;1.92;1.70;;;;;;;4.78;100.00;97861.69;4948320;29;20283;-65
2022/04/19 02:18:11;;;;;;;1.50;1.40;;;;;;;4.52;100.00;97870.75;4948781;29;20231;-65
2022/04/19 02:20:37;;;;;;;2.30;1.48;;;;;;;4.51;100.00;97863.13;4946655;29;20242;-65
2022/04/19 02:23:03;;;;;;;2.60;1.88;;;;;;;4.43;100.00;97865.28;4945264;29;20656;-65
2022/04/19 02:25:28;;;;;;;1.85;1.75;;;;;;;4.33;100.00;97859.00;4936900;29;20188;-65
2022/04/19 02:27:54;;;;;;;2.00;1.63;;;;;;;4.35;100.00;97860.56;4939582;29;20216;-65
2022/04/19 02:30:19;;;;;;;1.70;1.60;;;;;;;4.23;100.00;97868.06;4947092;29;20177;-65
2022/04/19 02:32:47;;;;;;;1.83;1.73;;;;;;;4.21;100.00;97864.75;4948216;29;20185;-66
2022/04/19 02:35:15;;;;;;;2.10;1.85;;;;;;;4.13;100.00;97837.00;4948233;29;20189;-66
2022/04/19 02:38:00;;;;;;;1.92;1.83;;;;;;;4.28;100.00;97861.81;4948279;29;20674;-65
2022/04/19 02:40:26;;;;;;;2.00;1.90;;;;;;;4.24;100.00;97870.53;4947858;29;20602;-65
2022/04/19 02:42:54;;;;;;;2.17;2.08;;;;;;;4.38;100.00;97862.16;4948061;29;20197;-65
2022/04/19 02:45:21;;;;;;;2.05;1.95;;;;;;;4.41;100.00;97855.13;4939214;29;20685;-65
2022/04/19 02:48:06;;;;;;;2.05;1.95;;;;;;;4.62;100.00;97859.09;4937892;29;20446;-65
2022/04/19 02:50:42;;;;;;;2.20;2.10;;;;;;;4.80;100.00;97864.97;4943555;29;20275;-65
2022/04/19 02:53:07;;;;;;;2.40;1.88;;;;;;;4.78;100.00;97861.69;4948387;28;20675;-65
2022/04/19 02:55:33;;;;;;;2.88;2.47;;;;;;;4.69;100.00;97857.03;4952067;29;20212;-65
2022/04/19 02:57:58;;;;;;;2.65;2.45;;;;;;;4.76;100.00;97861.75;4951672;29;20181;-65
2022/04/19 03:00:24;;;;;;;2.40;2.30;;;;;;;4.59;100.00;97864.38;4951635;29;20193;-65
2022/04/19 03:02:51;;;;;;;2.15;2.05;;;;;;;4.71;100.00;97876.53;4951496;28;20631;-65
2022/04/19 03:05:18;;;;;;;2.45;2.35;;;;;;;4.79;100.00;97874.38;4947920;29;20264;-65
2022/04/19 03:07:43;;;;;;;2.63;2.50;;;;;;;5.00;100.00;97878.34;4940367;29;20221;-65
2022/04/19 03:10:09;;;;;;;2.67;2.47;;;;;;;4.95;100.00;97877.78;4942287;29;20231;-66
2022/04/19 03:12:35;;;;;;;2.25;2.15;;;;;;;4.88;100.00;97879.03;4949907;29;20335;-65
2022/04/19 03:15:00;;;;;;;2.60;2.40;;;;;;;4.72;100.00;97887.63;4951340;29;20189;-65
2022/04/19 03:17:26;;;;;;;2.92;2.72;;;;;;;4.72;100.00;97874.81;4951428;29;20201;-65
2022/04/19 03:19:52;;;;;;;2.42;2.33;;;;;;;4.73;100.00;97869.59;4951532;29;20236;-65
2022/04/19 03:22:18;;;;;;;3.05;2.63;;;;;;;4.76;100.00;97873.72;4950929;29;20202;-65
2022/04/19 03:27:43;;;;;;;2.42;2.33;;;;;;;4.89;100.00;97879.88;4942618;29;20276;-65
2022/04/19 03:30:15;;;;;;;2.30;2.20;;;;;;;4.94;100.00;97883.81;4940919;29;20324;-65
2022/04/19 03:32:43;;;;;;;2.60;2.50;;;;;;;4.86;100.00;97880.00;4946553;29;20189;-65
2022/04/19 03:35:09;;;;;;;2.55;2.45;;;;;;;4.92;100.00;97885.66;4951106;29;20185;-65
2022/04/19 03:37:35;;;;;;;2.53;2.35;;;;;;;5.09;100.00;97872.72;4950838;29;20655;-65
2022/04/19 03:40:00;;;;;;;3.33;2.28;;;;;;;5.12;100.00;97876.88;4950848;29;20201;-65
2022/04/19 03:42:26;;;;;;;3.78;2.72;;;;;;;4.89;100.00;97883.22;4950752;29;20196;-65
2022/04/19 03:44:52;;;;;;;2.67;2.47;;;;;;;5.10;100.00;97888.91;4951154;29;20225;-65
2022/04/19 03:47:17;;;;;;;4.03;2.63;;;;;;;4.99;100.00;97879.28;4947573;29;20746;-65
2022/04/19 03:49:43;;;;;;;2.72;2.45;;;;;;;5.00;100.00;97887.75;4939970;29;20833;-65
2022/04/19 03:52:09;;;;;;;2.25;2.15;;;;;;;4.86;100.00;97885.13;4941468;29;20469;-65
2022/04/19 03:54:36;;;;;;;3.63;2.08;;;;;;;4.94;100.00;97885.53;4949233;29;20196;-65
2022/04/19 03:57:07;;;;;;;2.35;2.15;;;;;;;5.13;100.00;97891.34;4950873;29;20276;-65
2022/04/19 03:59:33;;;;;;;2.90;1.90;;;;;;;5.10;100.00;97894.06;4950661;29;20181;-65
2022/04/19 04:01:59;;;;;;;2.42;2.22;;;;;;;4.90;100.00;97884.88;4950580;29;20200;-65
2022/04/19 04:04:30;;;;;;;2.50;2.40;;;;;;;4.84;100.00;97889.53;4950269;28;20627;-59
2022/04/19 04:07:03;;;;;;;3.05;2.15;;;;;;;4.70;100.00;97889.44;4949817;29;20209;-65
2022/04/19 04:09:32;;;;;;;3.22;2.63;;;;;;;4.76;100.00;97879.69;4941736;29;20306;-65
2022/04/19 04:12:09;;;;;;;3.50;2.60;;;;;;;4.81;100.00;97882.84;4940049;29;20247;-65
2022/04/19 04:14:35;;;;;;;2.83;2.65;;;;;;;5.09;100.00;97888.13;4945373;29;20176;-65
2022/04/19 04:17:01;;;;;;;3.85;2.83;;;;;;;5.07;100.00;97889.09;4950065;29;20192;-65
2022/04/19 04:19:26;;;;;;;3.05;2.85;;;;;;;5.14;100.00;97901.47;4950266;29;20622;-65
2022/04/19 04:21:52;;;;;;;3.13;2.83;;;;;;;5.34;100.00;97903.78;4950000;29;20652;-65
2022/04/19 04:24:17;;;;;;;2.58;2.38;;;;;;;5.52;100.00;97907.88;4950412;29;20200;-65
2022/04/19 04:26:43;;;;;;;3.38;2.97;;;;;;;5.56;100.00;97904.25;4949951;29;20323;-65
2022/04/19 04:29:08;;;;;;;2.55;2.35;;;;;;;5.65;100.00;97908.84;4948111;29;20271;-64
2022/04/19 04:31:34;;;;;;;2.90;2.50;;;;;;;5.63;100.00;97917.53;4938682;29;20189;-66
2022/04/19 04:33:59;;;;;;;2.92;2.72;;;;;;;5.47;100.00;97909.06;4940691;29;20571;-65
2022/04/19 04:36:25;;;;;;;3.40;3.20;;;;;;;5.35;100.00;97904.59;4947554;29;20189;-65
2022/04/19 04:38:50;;;;;;;3.28;3.03;;;;;;;5.27;100.00;97909.34;4950008;29;20193;-65
2022/04/19 04:41:15;;;;;;;5.13;3.30;;;;;;;5.18;100.00;97913.22;4949821;29;20207;-65
2022/04/19 04:43:41;;;;;;;3.75;3.25;;;;;;;5.25;100.00;97918.88;4949528;29;20279;-65
2022/04/19 04:51:35;;;;;;;3.78;3.47;;;;;;;5.79;100.00;97929.44;4941027;29;20203;-65
2022/04/19 04:54:00;;;;;;;4.18;3.63;;;;;;;5.91;100.00;97936.47;4939143;29;20216;-65
2022/04/19 04:56:26;;;;;;;3.60;3.30;;;;;;;6.03;100.00;97928.06;4943449;29;20189;-65
2022/04/19 04:58:51;;;;;;;4.50;3.08;;;;;;;6.10;100.00;97926.75;4949721;29;20625;-65
2022/04/19 05:01:17;;;;;;;4.57;3.70;;;;;;;6.15;100.00;97940.16;4949370;29;20630;-65
2022/04/19 05:03:42;;;;;;;9.40;5.88;;;;;;;6.24;100.00;97934.47;4949328;28;20278;-66
2022/04/19 05:06:07;;;;;;;4.80;4.28;;;;;;;6.28;100.00;97935.13;4949298;29;20240;-65
2022/04/19 05:08:33;;;;;;;4.28;3.90;;;;;;;6.34;100.00;97937.31;4949240;29;20201;-65
2022/04/19 05:10:58;;;;;;;4.15;3.75;;;;;;;6.37;100.00;97945.72;4949259;29;20192;-65
2022/04/19 05:13:24;;;;;;;4.25;3.80;;;;;;;6.39;100.00;97938.72;4936208;29;20188;-65
2022/04/19 05:15:49;;;;;;;4.68;4.28;;;;;;;6.42;100.00;97941.09;4939342;29;20181;-65
2022/04/19 05:18:15;;;;;;;4.45;3.83;;;;;;;6.49;100.00;97946.72;4944239;28;20193;-66
2022/04/19 05:20:43;;;;;;;17.60;10.63;;;;;;;6.47;100.00;97936.50;4949012;29;20236;-65
2022/04/19 05:23:09;;;;;;;6.22;4.88;;;;;;;6.52;100.00;97939.63;4949004;29;20651;-65
2022/04/19 05:25:34;;;;;;;5.80;4.82;;;;;;;6.57;100.00;97942.78;4949208;29;20196;-65
2022/04/19 05:28:00;;;;;;;7.90;5.15;;;;;;;6.49;100.00;97939.84;4949067;29;20221;-65
2022/04/19 05:30:25;;;;;;;7.28;5.63;;;;;;;6.55;100.00;97951.47;4948653;29;20192;-65
2022/04/19 05:32:51;;;;;;;6.47;5.80;;;;;;;6.62;100.00;97948.47;4944263;29;20185;-65
2022/04/19 05:35:16;;;;;;;6.35;4.85;;;;;;;6.40;100.00;97942.13;4938195;29;20204;-66
2022/04/19 05:37:42;;;;;;;4.70;4.00;;;;;;;6.42;100.00;97940.28;4939963;29;20832;-65
2022/04/19 05:40:08;;;;;;;5.03;4.53;;;;;;;6.57;100.00;97953.03;4947398;29;20593;-66
2022/04/19 05:42:33;;;;;;;5.40;4.38;;;;;;;6.63;100.00;97949.28;4948665;29;20180;-66
2022/04/19 05:44:59;;;;;;;31.30;18.35;;;;;;;6.67;100.00;97950.75;4948791;29;20203;-66
2022/04/19 05:47:24;;;;;;;8.00;6.30;;;;;;;6.64;100.00;97944.03;4948312;29;20205;-66
2022/04/19 05:49:51;;;;;;;4.53;4.10;;;;;;;6.51;100.00;97944.88;4948772;29;20193;-66
2022/04/19 05:52:17;;;;;;;5.13;4.28;;;;;;;6.34;100.00;97948.44;4948380;29;20191;-66
2022/04/19 05:54:42;;;;;;;6.00;4.18;;;;;;;6.45;100.00;97946.06;4940504;29;20193;-66
2022/04/19 05:57:10;;;;;;;14.77;11.20;;;;;;;6.54;100.00;97945.50;4938218;29;20189;-66
2022/04/19 05:59:35;;;;;;;9.85;7.75;;;;;;;6.47;100.00;97945.97;4941811;29;20196;-66
2022/04/19 06:04:54;;;;;;;14.75;10.02;;;;;;;6.71;100.00;97963.31;4948577;28;20311;-66
2022/04/19 06:07:24;;;;;;;8.00;6.78;;;;;;;6.75;100.00;97972.50;4948778;29;20204;-65
2022/04/19 06:09:49;;;;;;;7.82;6.93;;;;;;;6.85;100.00;97968.47;4948816;29;20270;-66
2022/04/19 06:12:15;;;;;;;6.60;5.05;;;;;;;6.90;100.00;97971.59;4948404;29;20193;-66
2022/04/19 06:14:41;;;;;;;6.10;5.53;;;;;;;7.02;100.00;97970.84;4945775;29;20441;-64
2022/04/19 06:17:06;;;;;;;5.70;5.13;;;;;;;7.10;100.00;97972.94;4937900;29;20260;-66
2022/04/19 06:19:32;;;;;;;8.00;7.20;;;;;;;7.19;100.00;97975.78;4938926;29;20598;-66
2022/04/19 06:21:58;;;;;;;13.27;8.93;;;;;;;7.28;100.00;97977.75;4946072;29;20224;-65
2022/04/19 06:24:24;;;;;;;8.05;5.85;;;;;;;7.40;100.00;97976.19;4948441;29;20235;-65
2022/04/19 06:26:50;;;;;;;7.40;5.85;;;;;;;7.54;100.00;97981.28;4948790;29;20591;-65
2022/04/19 06:29:15;;;;;;;8.23;6.78;;;;;;;7.60;100.00;97983.47;4950753;28;20189;-66
2022/04/19 06:31:41;;;;;;;6.70;5.38;;;;;;;7.27;100.00;97980.41;4952043;29;20268;-65
2022/04/19 06:34:07;;;;;;;20.08;14.75;;;;;;;7.29;100.00;97994.84;4952051;29;20217;-65
2022/04/19 06:36:33;;;;;;;11.13;9.82;;;;;;;7.20;100.00;97990.28;4945087;29;20690;-65
2022/04/19 06:38:59;;;;;;;7.28;6.13;;;;;;;7.27;100.00;97990.72;4941656;29;20725;-65
2022/04/19 06:41:24;;;;;;;7.43;6.72;;;;;;;7.31;100.00;97993.03;4944435;29;20282;-65
2022/04/19 06:43:49;;;;;;;15.80;11.43;;;;;;;7.35;100.00;97994.47;4951952;29;20192;-65
2022/04/19 06:46:15;;;;;;;14.60;10.00;;;;;;;7.41;100.00;97996.66;4952092;29;20192;-65
2022/04/19 06:48:41;;;;;;;13.90;9.68;;;;;;;7.48;100.00;98000.53;4951843;29;20216;-65
2022/04/19 06:51:09;;;;;;;7.55;6.43;;;;;;;7.51;100.00;98000.31;4951282;29;20181;-65
2022/04/19 06:53:35;;;;;;;8.05;7.00;;;;;;;7.52;100.00;98003.72;4952077;29;20229;-67
2022/04/19 06:56:01;;;;;;;6.00;5.47;;;;;;;7.62;100.00;98008.19;4951730;29;20745;-65
2022/04/19 06:58:26;;;;;;;5.47;4.97;;;;;;;7.66;100.00;98009.66;4940718;29;20350;-65
2022/04/19 07:00:52;;;;;;;7.30;5.75;;;;;;;7.74;100.00;98007.41;4941658;29;20197;-65
2022/04/19 07:03:18;;;;;;;6.57;5.97;;;;;;;7.82;98.32;98007.75;4946962;28;20217;-66
2022/04/19 07:05:43;;;;;;;5.40;4.90;;;;;;;7.75;100.00;98006.50;4951380;29;20311;-65
2022/04/19 07:08:09;;;;;;;5.43;4.97;;;;;;;7.82;99.67;98015.47;4951326;29;20201;-65
2022/04/19 07:10:35;;;;;;;8.93;6.85;;;;;;;7.86;100.00;98011.78;4951471;29;20185;-65
2022/04/19 07:13:00;;;;;;;5.72;5.20;;;;;;;7.76;100.00;98010.72;4951715;29;20181;-65
2022/04/19 07:15:26;;;;;;;7.93;4.88;;;;;;;7.64;100.00;98008.91;4950987;29;20754;-66
2022/04/19 07:17:51;;;;;;;7.53;5.40;;;;;;;7.64;100.00;98010.69;4948600;29;20182;-65
2022/04/19 07:28:35;;;;;;;8.68;7.88;;;;;;;8.05;98.27;98019.97;4951102;29;20212;-67
2022/04/19 07:31:01;;;;;;;5.90;5.40;;;;;;;8.10;97.67;98014.53;4951292;29;20961;-66
2022/04/19 07:33:26;;;;;;;7.32;6.63;;;;;;;8.14;96.89;98009.09;4950790;29;20188;-66
2022/04/19 07:35:55;;;;;;;7.85;7.05;;;;;;;8.13;97.43;98011.75;4951211;29;20571;-65
2022/04/19 07:38:20;;;;;;;8.60;5.80;;;;;;;8.18;98.39;98017.44;4951095;29;20177;-65
2022/04/19 07:40:46;;;;;;;7.95;5.72;;;;;;;8.12;100.00;98016.09;4938134;28;20195;-66
2022/04/19 07:43:11;;;;;;;5.80;5.30;;;;;;;8.12;100.00;98013.53;4941034;29;20678;-65
2022/04/19 07:45:37;;;;;;;5.50;5.03;;;;;;;8.23;97.71;98015.44;4947407;29;20189;-65
2022/04/19 07:48:04;;;;;;;5.40;4.90;;;;;;;8.12;95.23;98008.38;4950645;29;20228;-66
2022/04/19 07:50:29;;;;;;;5.57;5.07;;;;;;;8.13;96.39;98015.16;4950579;29;20185;-66
2022/04/19 07:52:55;;;;;;;5.78;5.20;;;;;;;8.08;96.84;98017.22;4950869;29;20204;-66
2022/04/19 07:55:21;;;;;;;6.05;4.90;;;;;;;8.12;97.65;98010.94;4950507;29;20192;-67
2022/04/19 07:57:47;;;;;;;6.07;5.45;;;;;;;8.15;99.37;98012.50;4950749;29;20662;-65
2022/04/19 08:00:13;;;;;;;4.82;4.32;;;;;;;8.14;98.43;98003.94;4945898;29;20197;-65
2022/04/19 08:02:39;;;;;;;6.47;5.10;;;;;;;8.27;96.02;98019.47;4939885;28;20195;-65
2022/04/19 08:05:06;;;;;;;10.85;7.82;;;;;;;8.27;96.87;98011.72;4941766;29;20256;-66
2022/04/19 08:07:31;;;;;;;6.15;5.55;;;;;;;8.26;97.98;98010.91;4949842;29;20778;-66
2022/04/19 08:09:58;;;;;;;5.18;4.60;;;;;;;8.25;96.87;98014.41;4950160;29;20185;-64
2022/04/19 08:12:25;;;;;;;4.80;4.30;;;;;;;8.07;98.49;98010.41;4950408;29;20220;-66
2022/04/19 08:14:50;;;;;;;6.85;4.80;;;;;;;8.16;94.01;98014.94;4949990;29;20527;-66
2022/04/19 08:17:16;;;;;;;7.88;5.53;;;;;;;8.27;94.67;98016.88;4950003;29;20177;-66
2022/04/19 08:19:41;;;;;;;12.85;7.72;;;;;;;8.40;95.89;98017.72;4950237;29;20294;-66
2022/04/19 08:22:08;;;;;;;5.47;4.43;;;;;;;8.45;92.58;98021.63;4924108;29;20195;-66
2022/04/19 08:24:34;;;;;;;18.30;9.70;;;;;;;8.58;90.46;98017.34;4940023;29;20541;-66
2022/04/19 08:26:59;;;;;;;12.95;7.72;;;;;;;8.28;90.64;98019.34;4943863;29;20617;-67
2022/04/19 08:29:25;;;;;;;5.78;5.20;;;;;;;8.30;91.27;98012.34;4950338;29;20185;-66
2022/04/19 08:31:50;;;;;;;10.98;5.85;;;;;;;8.50;90.58;98026.50;4950462;29;20187;-66
2022/04/19 08:34:15;;;;;;;7.78;4.88;;;;;;;8.23;92.17;98021.41;4949966;29;20756;-66
2022/04/19 08:36:41;;;;;;;5.43;4.90;;;;;;;8.26;89.88;98003.16;4950093;29;20189;-66
2022/04/19 08:39:07;;;;;;;11.10;8.68;;;;;;;8.60;88.85;98028.38;4950044;29;20640;-65
2022/04/19 08:41:32;;;;;;;14.70;8.90;;;;;;;8.84;90.34;98021.56;4949135;29;20185;-65
2022/04/19 08:43:58;;;;;;;9.23;6.78;;;;;;;8.95;89.96;98018.25;4938364;29;20550;-65
2022/04/19 08:46:26;;;;;;;44.15;17.80;;;;;;;8.86;90.01;98021.47;4940435;29;20275;-65
2022/04/19 08:48:55;;;;;;;46.03;18.08;;;;;;;8.87;89.75;98018.78;4946722;29;20240;-66
2022/04/19 08:51:21;;;;;;;9.35;6.57;;;;;;;9.03;92.15;98018.56;4949408;28;20220;-66
2022/04/19 08:59:14;;;;;;;45.97;22.35;;;;;;;8.93;91.53;98013.22;4949703;29;20690;-65
2022/04/19 09:01:41;;;;;;;32.47;17.90;;;;;;;8.70;96.11;98010.53;4949476;29;20181;-66
2022/04/19 09:04:06;;;;;;;19.77;14.10;;;;;;;8.53;95.01;98015.97;4941118;28;20220;-65
2022/04/19 09:07:04;;;;;;;21.35;11.95;;;;;;;8.45;95.13;98016.47;4938893;29;20264;-65
2022/04/19 09:09:34;;;;;;;11.88;8.85;;;;;;;8.45;94.40;98011.31;4922338;29;20201;-65
2022/04/19 09:12:08;;;;;;;17.65;10.82;;;;;;;8.20;95.45;98006.13;4949329;29;20183;-65
2022/04/19 09:14:34;;;;;;;14.40;8.88;;;;;;;8.11;97.28;98006.69;4949464;29;20175;-65
2022/04/19 09:17:10;;;;;;;15.52;7.72;;;;;;;8.12;99.10;98013.53;4949213;29;20263;-65
2022/04/19 09:19:37;;;;;;;6.55;5.63;;;;;;;8.25;98.07;98014.41;4949010;29;20734;-65
2022/04/19 09:22:03;;;;;;;7.43;6.68;;;;;;;8.46;95.70;98017.31;4949204;29;20191;-65
2022/04/19 09:24:29;;;;;;;6.88;5.32;;;;;;;8.61;93.84;98013.69;4944818;29;20414;-65
2022/04/19 09:26:54;;;;;;;6.15;5.25;;;;;;;8.80;91.60;98012.38;4938566;29;20550;-65
2022/04/19 09:29:21;;;;;;;7.13;6.43;;;;;;;8.87;91.45;98015.38;4939783;29;20272;-65
2022/04/19 09:31:47;;;;;;;12.90;10.43;;;;;;;8.84;92.99;98012.97;4948194;29;20734;-65
2022/04/19 09:34:30;;;;;;;11.07;8.02;;;;;;;8.82;91.03;98012.28;4949207;29;20670;-65
2022/04/19 09:37:12;;;;;;;11.82;6.85;;;;;;;8.50;94.75;98006.69;4949119;29;20248;-65
2022/04/19 09:39:38;;;;;;;10.50;8.68;;;;;;;8.47;94.74;97993.19;4949087;29;20191;-65
2022/04/19 09:42:12;;;;;;;7.60;6.78;;;;;;;8.57;95.57;98002.78;4949068;29;20193;-65
2022/04/19 09:44:40;;;;;;;6.68;5.90;;;;;;;8.40;92.99;98003.06;4949111;29;20643;-66
2022/04/19 09:47:12;;;;;;;6.65;5.88;;;;;;;8.32;94.29;97999.38;4936936;29;20209;-65
2022/04/19 09:49:46;;;;;;;8.48;7.70;;;;;;;8.41;95.54;98009.06;4939215;29;20510;-65
2022/04/19 09:52:20;;;;;;;11.70;10.60;;;;;;;8.25;94.81;98001.50;4946255;29;20776;-65
2022/04/19 09:55:19;;;;;;;6.20;5.60;;;;;;;8.32;94.55;98007.91;4948647;29;20232;-66
2022/04/19 09:57:48;;;;;;;6.70;5.90;;;;;;;8.55;94.79;98002.06;4947788;29;20205;-65
2022/04/19 10:00:16;;;;;;;8.70;7.00;;;;;;;8.62;97.17;97999.91;4949062;29;20188;-66
2022/04/19 10:08:19;;;;;;;30.55;15.02;;;;;;;9.22;93.05;97993.97;4950392;28;20267;-65
2022/04/19 10:10:46;;;;;;;43.38;20.33;;;;;;;8.98;91.62;97989.66;4950698;28;20192;-66
2022/04/19 10:13:13;;;;;;;7.00;5.78;;;;;;;8.80;89.65;97989.16;4955211;29;20586;-67
2022/04/19 10:15:39;;;;;;;8.43;6.38;;;;;;;8.78;92.50;97988.44;4957230;29;20196;-66
2022/04/19 10:18:06;;;;;;;7.07;5.97;;;;;;;8.99;90.57;97986.16;4956755;29;20173;-67
2022/04/19 10:20:36;;;;;;;7.63;6.82;;;;;;;9.23;89.33;97993.03;4957577;28;20666;-65
2022/04/19 10:23:10;;;;;;;5.93;5.43;;;;;;;9.31;88.10;97997.66;4956600;28;20172;-66
2022/04/19 10:25:46;;;;;;;7.57;5.25;;;;;;;9.36;89.72;97991.22;4949304;29;20272;-66
2022/04/19 10:28:14;;;;;;;6.72;6.10;;;;;;;9.29;91.97;97995.19;4949836;28;20216;-65
2022/04/19 10:30:53;;;;;;;8.20;6.40;;;;;;;9.52;87.25;98002.13;4951115;29;20189;-65
2022/04/19 10:33:51;;;;;;;6.95;6.25;;;;;;;9.63;86.29;98001.38;4955107;29;20553;-65
2022/04/19 10:36:33;;;;;;;5.80;5.30;;;;;;;9.79;87.14;98000.16;4956231;28;20316;-65
2022/04/19 10:39:14;;;;;;;7.22;5.15;;;;;;;9.82;87.88;97992.19;4955161;29;20176;-65
2022/04/19 10:41:59;;;;;;;7.28;5.18;;;;;;;9.90;85.61;97987.28;4954969;29;20189;-65
2022/04/19 10:44:32;;;;;;;5.95;5.10;;;;;;;9.44;90.42;97990.69;4955724;29;20189;-65
2022/04/19 10:47:14;;;;;;;5.85;5.18;;;;;;;9.36;89.84;97988.66;4958244;28;20293;-65
2022/04/19 10:50:05;;;;;;;8.10;4.57;;;;;;;9.12;88.68;97994.69;4950334;28;20567;-65
2022/04/19 10:52:39;;;;;;;6.35;5.70;;;;;;;9.29;90.22;97984.00;4953202;28;20216;-65
2022/04/19 10:55:11;;;;;;;8.00;5.50;;;;;;;9.00;89.97;97980.88;4936554;29;20199;-67
2022/04/19 11:00:51;;;;;;;5.30;4.80;;;;;;;9.65;89.48;97971.91;4956699;29;20243;-65
2022/04/19 11:03:20;;;;;;;6.28;5.45;;;;;;;9.81;86.95;97975.06;4955969;28;20299;-65
2022/04/19 11:05:50;;;;;;;6.38;5.88;;;;;;;9.91;88.05;97978.59;4956935;28;20258;-65
2022/04/19 11:08:25;;;;;;;5.05;4.53;;;;;;;9.77;84.69;97974.44;4956835;28;20300;-65
2022/04/19 11:11:03;;;;;;;6.15;4.60;;;;;;;9.84;86.29;97978.22;4953308;29;20184;-65
2022/04/19 11:13:31;;;;;;;5.88;5.22;;;;;;;10.10;82.92;97978.97;4954469;29;20216;-65
2022/04/19 11:16:05;;;;;;;13.95;8.30;;;;;;;10.20;81.70;97967.81;4953989;28;20655;-65
2022/04/19 11:18:34;;;;;;;9.48;5.60;;;;;;;10.10;82.55;97971.19;4954199;29;20662;-65
2022/04/19 11:21:03;;;;;;;11.88;6.85;;;;;;;10.01;85.19;97969.25;4953631;29;20191;-65
2022/04/19 11:23:29;;;;;;;5.28;4.20;;;;;;;10.05;86.15;97965.53;4952559;29;20987;-65
2022/04/19 11:25:55;;;;;;;5.47;4.47;;;;;;;10.29;85.05;97963.72;4951601;29;20282;-65
2022/04/19 11:28:23;;;;;;;4.35;3.95;;;;;;;10.03;87.25;97957.03;4954525;29;20698;-65
2022/04/19 11:30:57;;;;;;;4.28;3.95;;;;;;;10.07;84.35;97963.66;4951938;29;20188;-65
2022/04/19 11:33:33;;;;;;;4.68;4.20;;;;;;;10.49;81.54;97963.03;4952299;29;20275;-65
2022/04/19 11:36:01;;;;;;;5.10;4.60;;;;;;;10.58;83.83;97962.38;4952062;29;20177;-65
2022/04/19 11:38:28;;;;;;;4.35;3.90;;;;;;;10.71;80.61;97963.91;4953015;29;20212;-65
2022/04/19 11:46:44;;;;;;;5.60;4.00;;;;;;;10.42;81.69;97964.44;4951468;29;20203;-65
2022/04/19 11:49:34;;;;;;;4.70;3.90;;;;;;;10.69;80.06;97964.97;4951831;29;20188;-65
2022/04/19 11:52:17;;;;;;;5.55;4.60;;;;;;;10.67;80.51;97964.25;4951899;29;20225;-65
2022/04/19 11:54:43;;;;;;;6.07;5.50;;;;;;;10.93;79.06;97961.34;4947478;29;20188;-67
2022/04/19 11:57:10;;;;;;;6.40;5.07;;;;;;;11.12;77.70;97965.91;4932284;29;20185;-65
2022/04/19 11:59:43;;;;;;;6.50;5.70;;;;;;;10.90;80.34;97963.31;4953616;29;20684;-65
2022/04/19 12:02:17;;;;;;;5.50;5.00;;;;;;;10.87;79.27;97966.16;4951482;29;20181;-65
2022/04/19 12:04:57;;;;;;;8.30;5.38;;;;;;;10.68;80.85;97961.53;4936234;29;20223;-65
2022/04/19 12:07:25;;;;;;;5.72;5.13;;;;;;;10.60;81.15;97958.72;4927197;29;20213;-65
2022/04/19 12:09:51;;;;;;;6.85;5.13;;;;;;;10.81;81.87;97958.84;4947204;29;20213;-65
2022/04/19 12:12:19;;;;;;;5.78;4.85;;;;;;;11.01;80.61;97955.53;4951802;29;20188;-65
2022/04/19 12:14:52;;;;;;;18.30;11.10;;;;;;;11.40;78.63;97955.03;4945359;29;20530;-65
2022/04/19 12:17:22;;;;;;;5.28;4.00;;;;;;;11.59;73.30;97952.66;4949404;29;20247;-65
2022/04/19 12:19:59;;;;;;;6.05;4.43;;;;;;;11.96;74.19;97948.75;4950290;29;20251;-65